Champion — WCZ7631 — position and weather

sailwx.info

Track history (hours):
 
Tides and Currents Weather Stations Pressure Air Temp Water Temp Dewpoint Dewpoint Depression Visibility Wind Speed Wind Dir Waves Ship Positions

Champion

Owner: MC CULLEY MARINE SERVICES INC, FORT PIERCE, FL. More information available from US FCC via Universal Licensing System and Coast Guard Vessel Documentation Center.

Last reported at 2016-Jun-18 14:32 UTC. Time now 2016-Jun-26 12:05 UTC.
Position N 26°15' W 079°29'.

Length 20 m; draft 1.7 m.

Type: Towing. MMSI: 367005250.

Date/timePositionNaut miles runAvg speedWind from/ knotsBaromVisibWave heightAir tempDewpointWater temp
2016-Jun-18 14:32N 26°15' W 079°29'5 5.5
2016-Jun-18 13:33N 26°16' W 079°35'6 5.6
2016-Jun-18 12:32N 26°17' W 079°42'5 5.5
2016-Jun-18 11:33N 26°16' W 079°48'5 5.3
2016-Jun-18 10:33N 26°17' W 079°54'6 5.6
2016-Jun-18 09:33N 26°19' W 079°59'5 5.0
2016-Jun-18 08:33N 26°23' W 080°02'5 5.0
2016-Jun-18 07:33N 26°28' W 080°01'5 5.1
2016-Jun-18 06:33N 26°33' W 080°01'15 4.7
2016-Jun-18 03:29N 26°48' W 080°00'5 5.3
2016-Jun-18 02:33N 26°53' W 080°02'6 5.5
2016-Jun-18 01:33N 26°58' W 080°03'12 5.6
2016-Jun-17 23:26N 27°09' W 080°07'  
2016-Jun-10 19:29N 30°01' W 089°54'7 5.6
2016-Jun-10 18:10N 29°58' W 090°02'1 1.4
2016-Jun-10 17:33N 29°57' W 090°02'4 3.7
2016-Jun-10 16:33N 29°54' W 090°05'4 3.8
2016-Jun-10 15:28N 29°50' W 090°04'1 1.3
2016-Jun-10 14:33N 29°52' W 090°04'3 3.1
2016-Jun-10 13:33N 29°55' W 090°05'0 0.2
2016-Jun-10 12:33N 29°55' W 090°05'2 1.8
2016-Jun-10 11:33N 29°56' W 090°04'2 2.5
2016-Jun-10 10:33N 29°58' W 090°02'1 0.8
2016-Jun-10 09:33N 29°59' W 090°01'1 1.3
2016-Jun-10 08:33N 29°60' W 090°01'0 0.0
2016-Jun-10 07:33N 29°60' W 090°01'0 0.0
2016-Jun-10 06:33N 29°60' W 090°01'0 0.0
2016-Jun-10 05:33N 29°60' W 090°01'0 0.0
2016-Jun-10 04:33N 29°60' W 090°01'0 0.0
2016-Jun-10 03:33N 29°60' W 090°01'0 0.0
2016-Jun-10 02:33N 29°60' W 090°01'0 0.0
2016-Jun-10 01:33N 29°60' W 090°01'0 0.0
2016-Jun-10 00:33N 29°60' W 090°01'0 0.0
2016-Jun-09 23:33N 29°60' W 090°01'0 0.0
2016-Jun-09 22:33N 29°60' W 090°01'0 0.0
2016-Jun-09 21:33N 29°60' W 090°01'0 0.0
2016-Jun-09 20:33N 29°60' W 090°01'0 0.0
2016-Jun-09 19:33N 29°60' W 090°01'0 0.0
2016-Jun-09 18:34N 29°60' W 090°01'0 0.0
2016-Jun-09 17:33N 29°60' W 090°01'0 0.0
2016-Jun-09 16:33N 29°60' W 090°01'0 0.0
2016-Jun-09 15:33N 29°60' W 090°01'3 2.5
2016-Jun-09 14:33N 30°00' W 089°58'  
Track history (hours):
 
Tides and Currents Weather Stations Pressure Air Temp Water Temp Dewpoint Dewpoint Depression Visibility Wind Speed Wind Dir Waves Ship Positions

Champion

Owner: MC CULLEY MARINE SERVICES INC, FORT PIERCE, FL. More information available from US FCC via Universal Licensing System and Coast Guard Vessel Documentation Center.

Last reported at 2016-Jun-18 14:32 UTC. Time now 2016-Jun-26 12:05 UTC.
Position N 26°15' W 079°29'.

Length 20 m; draft 1.7 m.

Type: Towing. MMSI: 367005250.

Date/timePositionNaut miles runAvg speedWind from/ knotsBaromVisibWave heightAir tempDewpointWater temp
2016-Jun-18 14:32N 26°15' W 079°29'5 5.5
2016-Jun-18 13:33N 26°16' W 079°35'6 5.6
2016-Jun-18 12:32N 26°17' W 079°42'5 5.5
2016-Jun-18 11:33N 26°16' W 079°48'5 5.3
2016-Jun-18 10:33N 26°17' W 079°54'6 5.6
2016-Jun-18 09:33N 26°19' W 079°59'5 5.0
2016-Jun-18 08:33N 26°23' W 080°02'5 5.0
2016-Jun-18 07:33N 26°28' W 080°01'5 5.1
2016-Jun-18 06:33N 26°33' W 080°01'15 4.7
2016-Jun-18 03:29N 26°48' W 080°00'5 5.3
2016-Jun-18 02:33N 26°53' W 080°02'6 5.5
2016-Jun-18 01:33N 26°58' W 080°03'12 5.6
2016-Jun-17 23:26N 27°09' W 080°07'  
2016-Jun-10 19:29N 30°01' W 089°54'7 5.6
2016-Jun-10 18:10N 29°58' W 090°02'1 1.4
2016-Jun-10 17:33N 29°57' W 090°02'4 3.7
2016-Jun-10 16:33N 29°54' W 090°05'4 3.8
2016-Jun-10 15:28N 29°50' W 090°04'1 1.3
2016-Jun-10 14:33N 29°52' W 090°04'3 3.1
2016-Jun-10 13:33N 29°55' W 090°05'0 0.2
2016-Jun-10 12:33N 29°55' W 090°05'2 1.8
2016-Jun-10 11:33N 29°56' W 090°04'2 2.5
2016-Jun-10 10:33N 29°58' W 090°02'1 0.8
2016-Jun-10 09:33N 29°59' W 090°01'1 1.3
2016-Jun-10 08:33N 29°60' W 090°01'0 0.0
2016-Jun-10 07:33N 29°60' W 090°01'0 0.0
2016-Jun-10 06:33N 29°60' W 090°01'0 0.0
2016-Jun-10 05:33N 29°60' W 090°01'0 0.0
2016-Jun-10 04:33N 29°60' W 090°01'0 0.0
2016-Jun-10 03:33N 29°60' W 090°01'0 0.0
2016-Jun-10 02:33N 29°60' W 090°01'0 0.0
2016-Jun-10 01:33N 29°60' W 090°01'0 0.0
2016-Jun-10 00:33N 29°60' W 090°01'0 0.0
2016-Jun-09 23:33N 29°60' W 090°01'0 0.0
2016-Jun-09 22:33N 29°60' W 090°01'0 0.0
2016-Jun-09 21:33N 29°60' W 090°01'0 0.0
2016-Jun-09 20:33N 29°60' W 090°01'0 0.0
2016-Jun-09 19:33N 29°60' W 090°01'0 0.0
2016-Jun-09 18:34N 29°60' W 090°01'0 0.0
2016-Jun-09 17:33N 29°60' W 090°01'0 0.0
2016-Jun-09 16:33N 29°60' W 090°01'0 0.0
2016-Jun-09 15:33N 29°60' W 090°01'3 2.5
2016-Jun-09 14:33N 30°00' W 089°58'  

Dump ship's entire track history